createdAt,value
2023-09-26T00:01:00.914Z,16.33
2023-09-26T00:03:28.355Z,16.29
2023-09-26T00:05:58.216Z,16.28
2023-09-26T00:08:25.892Z,16.29
2023-09-26T00:10:54.547Z,16.35
2023-09-26T00:13:21.967Z,16.41
2023-09-26T00:15:49.465Z,16.45
2023-09-26T00:18:17.058Z,16.45
2023-09-26T00:20:45.696Z,16.43
2023-09-26T00:23:13.447Z,16.44
2023-09-26T00:25:40.858Z,16.50
2023-09-26T00:28:08.552Z,16.56
2023-09-26T00:30:36.097Z,16.60
2023-09-26T00:33:03.768Z,16.62
2023-09-26T00:35:31.187Z,16.67
2023-09-26T00:37:59.546Z,16.74
2023-09-26T00:40:27.095Z,16.77
2023-09-26T00:42:54.481Z,16.77
2023-09-26T00:45:21.986Z,16.74
2023-09-26T00:47:49.757Z,16.74
2023-09-26T00:50:17.870Z,16.76
2023-09-26T00:52:47.929Z,16.76
2023-09-26T00:55:18.008Z,16.76
2023-09-26T00:57:45.777Z,16.77
2023-09-26T01:00:15.838Z,16.83
2023-09-26T01:02:44.040Z,16.90
2023-09-26T01:05:13.821Z,16.93
2023-09-26T01:07:41.251Z,16.91
2023-09-26T01:10:08.973Z,16.89
2023-09-26T01:12:37.127Z,16.91
2023-09-26T01:15:05.156Z,16.94
2023-09-26T01:17:33.595Z,16.93
2023-09-26T01:20:01.303Z,16.93
2023-09-26T01:22:28.934Z,16.91
2023-09-26T01:24:56.315Z,16.93
2023-09-26T01:27:23.818Z,16.97
2023-09-26T01:29:52.637Z,16.96
2023-09-26T01:32:20.061Z,16.92
2023-09-26T01:34:47.451Z,16.92
2023-09-26T01:37:15.020Z,16.95
2023-09-26T01:39:42.454Z,16.96
2023-09-26T01:42:09.804Z,16.93
2023-09-26T01:44:37.184Z,16.92
2023-09-26T01:47:04.734Z,16.92
2023-09-26T01:49:32.317Z,16.89
2023-09-26T01:51:59.805Z,16.84
2023-09-26T01:54:27.469Z,16.79
2023-09-26T01:56:55.118Z,16.76
2023-09-26T01:59:23.125Z,16.77
2023-09-26T02:01:50.846Z,16.78
2023-09-26T02:04:18.288Z,16.73
2023-09-26T02:06:45.749Z,16.68
2023-09-26T02:09:13.252Z,16.66
2023-09-26T02:11:40.588Z,16.66
2023-09-26T02:14:09.147Z,16.67
2023-09-26T02:16:36.822Z,16.70
2023-09-26T02:19:06.513Z,16.76
2023-09-26T02:21:34.201Z,16.83
2023-09-26T02:24:01.605Z,16.86
2023-09-26T02:26:29.009Z,16.87
2023-09-26T02:28:56.334Z,16.92
2023-09-26T02:31:23.792Z,16.97
2023-09-26T02:33:51.626Z,17.02
2023-09-26T02:36:19.104Z,17.02
2023-09-26T02:38:46.540Z,17.02
2023-09-26T02:41:14.380Z,17.05
2023-09-26T02:43:41.804Z,17.09
2023-09-26T02:46:09.875Z,17.12
2023-09-26T02:48:39.017Z,17.12
2023-09-26T02:51:06.526Z,17.10
2023-09-26T02:53:33.922Z,17.11
2023-09-26T02:56:01.444Z,17.12
2023-09-26T02:58:28.890Z,17.15
2023-09-26T03:00:56.598Z,17.15
2023-09-26T03:03:24.185Z,17.14
2023-09-26T03:05:53.555Z,17.15
2023-09-26T03:08:21.008Z,17.16
2023-09-26T03:10:49.193Z,17.15
2023-09-26T03:13:16.711Z,17.13
2023-09-26T03:15:44.135Z,17.14
2023-09-26T03:18:11.586Z,17.15
2023-09-26T03:20:40.419Z,17.14
2023-09-26T03:23:07.858Z,17.04
2023-09-26T03:25:35.342Z,16.85
2023-09-26T03:28:05.001Z,16.71
2023-09-26T03:30:32.483Z,16.64
2023-09-26T03:32:59.940Z,16.62
2023-09-26T03:35:27.401Z,16.58
2023-09-26T03:37:54.756Z,16.51
2023-09-26T03:40:22.215Z,16.46
2023-09-26T03:42:49.718Z,16.40
2023-09-26T03:45:17.254Z,16.33
2023-09-26T03:47:44.674Z,16.31
2023-09-26T03:50:12.158Z,16.30
2023-09-26T03:52:39.490Z,16.24
2023-09-26T03:55:08.107Z,16.24
2023-09-26T03:57:35.989Z,16.26
2023-09-26T04:00:14.020Z,16.24
2023-09-26T04:02:41.671Z,16.20
2023-09-26T04:05:09.193Z,16.22
2023-09-26T04:07:37.778Z,16.26
2023-09-26T04:10:07.114Z,16.28
2023-09-26T04:12:35.229Z,16.27
2023-09-26T04:15:02.698Z,16.28
2023-09-26T04:17:30.887Z,16.31
2023-09-26T04:19:58.917Z,16.38
2023-09-26T04:22:26.589Z,16.43
2023-09-26T04:24:54.586Z,16.47
2023-09-26T04:27:27.547Z,16.55
2023-09-26T04:30:00.413Z,16.61
2023-09-26T04:32:28.049Z,16.62
2023-09-26T04:34:55.565Z,16.56
2023-09-26T04:37:23.015Z,16.50
2023-09-26T04:39:50.602Z,16.47
2023-09-26T04:42:18.059Z,16.45
2023-09-26T04:44:45.453Z,16.43
2023-09-26T04:47:12.894Z,16.38
2023-09-26T04:49:40.923Z,16.34
2023-09-26T04:52:08.477Z,16.36
2023-09-26T04:54:36.282Z,16.43
2023-09-26T04:57:03.726Z,16.51
2023-09-26T04:59:31.217Z,16.62
2023-09-26T05:01:58.663Z,16.68
2023-09-26T05:04:26.969Z,16.76
2023-09-26T05:06:55.044Z,16.87
2023-09-26T05:09:23.406Z,16.97
2023-09-26T05:11:50.786Z,17.04
2023-09-26T05:14:18.240Z,17.07
2023-09-26T05:16:45.841Z,17.13
2023-09-26T05:19:13.354Z,17.21
2023-09-26T05:21:40.780Z,17.28
2023-09-26T05:24:11.720Z,17.33
2023-09-26T05:26:39.170Z,17.33
2023-09-26T05:29:06.977Z,17.33
2023-09-26T05:31:34.490Z,17.34
2023-09-26T05:34:02.175Z,17.35
2023-09-26T05:36:29.721Z,17.33
2023-09-26T05:38:57.114Z,17.31
2023-09-26T05:41:24.466Z,17.28
2023-09-26T05:43:52.057Z,17.27
2023-09-26T05:46:19.798Z,17.28
2023-09-26T05:48:52.340Z,17.29
2023-09-26T05:51:20.242Z,17.28
2023-09-26T05:53:47.974Z,17.31
2023-09-26T05:56:15.428Z,17.36
2023-09-26T05:58:42.911Z,17.39
2023-09-26T06:01:10.695Z,17.38
2023-09-26T06:03:38.347Z,17.38
2023-09-26T06:06:05.993Z,17.41
2023-09-26T06:08:35.036Z,17.47
2023-09-26T06:11:03.808Z,17.52
2023-09-26T06:13:32.622Z,17.52
2023-09-26T06:16:00.089Z,17.50
2023-09-26T06:18:28.539Z,17.52
2023-09-26T06:20:56.024Z,17.59
2023-09-26T06:23:23.439Z,17.62
2023-09-26T06:26:00.733Z,17.61
2023-09-26T06:28:28.846Z,17.60
2023-09-26T06:30:57.454Z,17.61
2023-09-26T06:33:25.170Z,17.63
2023-09-26T06:35:52.891Z,17.64
2023-09-26T06:38:20.985Z,17.63
2023-09-26T06:40:48.578Z,17.58
2023-09-26T06:43:16.110Z,17.57
2023-09-26T06:45:43.551Z,17.58
2023-09-26T06:48:11.165Z,17.62
2023-09-26T06:50:43.380Z,17.60
2023-09-26T06:53:10.934Z,17.56
2023-09-26T06:55:40.757Z,17.56
2023-09-26T06:58:08.603Z,17.58
2023-09-26T07:00:37.135Z,17.61
2023-09-26T07:03:05.492Z,17.62
2023-09-26T07:05:33.330Z,17.62
2023-09-26T07:08:00.793Z,17.64
2023-09-26T07:10:28.470Z,17.67
2023-09-26T07:12:55.909Z,17.70
2023-09-26T07:15:26.702Z,17.65
2023-09-26T07:17:54.111Z,17.51
2023-09-26T07:20:22.922Z,17.43
2023-09-26T07:22:51.276Z,17.44
2023-09-26T07:25:18.785Z,17.52
2023-09-26T07:27:47.764Z,17.57
2023-09-26T07:30:16.192Z,17.51
2023-09-26T07:32:43.615Z,17.45
2023-09-26T07:35:11.034Z,17.44
2023-09-26T07:37:38.491Z,17.46
2023-09-26T07:40:10.493Z,17.46
2023-09-26T07:42:38.257Z,17.49
2023-09-26T07:45:06.292Z,17.56
2023-09-26T07:47:33.757Z,17.67
2023-09-26T07:50:02.626Z,17.72
2023-09-26T07:52:33.409Z,17.68
2023-09-26T07:55:00.831Z,17.68
2023-09-26T07:57:28.328Z,17.76
2023-09-26T07:59:55.732Z,17.83
2023-09-26T08:02:23.180Z,17.88
2023-09-26T08:04:53.236Z,17.93
2023-09-26T08:07:20.730Z,17.96
2023-09-26T08:09:48.233Z,18.03
2023-09-26T08:12:15.798Z,18.12
2023-09-26T08:14:43.273Z,18.17
2023-09-26T08:17:10.691Z,18.13
2023-09-26T08:19:38.176Z,18.12
2023-09-26T08:22:05.664Z,18.17
2023-09-26T08:24:33.129Z,18.25
2023-09-26T08:27:00.588Z,18.35
2023-09-26T08:29:28.733Z,18.33
2023-09-26T08:31:56.171Z,18.29
2023-09-26T08:34:24.345Z,18.29
2023-09-26T08:36:53.746Z,18.33
2023-09-26T08:39:21.433Z,18.40
2023-09-26T08:41:51.245Z,18.46
2023-09-26T08:44:19.247Z,18.48
2023-09-26T08:46:46.744Z,18.50
2023-09-26T08:49:14.480Z,18.56
2023-09-26T08:51:42.172Z,18.69
2023-09-26T08:54:11.475Z,18.87
2023-09-26T08:56:41.104Z,19.06
2023-09-26T08:59:10.211Z,19.19
2023-09-26T09:01:37.946Z,19.26
2023-09-26T09:04:05.731Z,19.29
2023-09-26T09:06:33.264Z,19.34
2023-09-26T09:09:10.734Z,19.41
2023-09-26T09:11:38.348Z,19.46
2023-09-26T09:14:07.402Z,19.49
2023-09-26T09:16:35.063Z,19.51
2023-09-26T09:19:02.666Z,19.56
2023-09-26T09:21:31.926Z,19.65
2023-09-26T09:24:05.877Z,19.69
2023-09-26T09:26:35.983Z,19.67
2023-09-26T09:29:18.006Z,19.65
2023-09-26T09:31:45.714Z,19.67
2023-09-26T09:34:13.563Z,19.73
2023-09-26T09:36:41.143Z,19.80
2023-09-26T09:39:11.657Z,19.88
2023-09-26T09:41:39.777Z,19.98
2023-09-26T09:44:07.333Z,20.09
2023-09-26T09:48:04.519Z,20.36
2023-09-26T09:50:33.111Z,20.45
2023-09-26T09:53:02.782Z,20.51
2023-09-26T09:55:34.662Z,20.58
2023-09-26T09:58:03.934Z,20.66
2023-09-26T10:00:33.213Z,20.77
2023-09-26T10:03:07.166Z,20.85
2023-09-26T10:05:37.932Z,20.92
2023-09-26T10:08:06.506Z,20.93
2023-09-26T10:10:33.920Z,20.96
2023-09-26T10:13:32.371Z,20.98
2023-09-26T10:16:07.275Z,21.02
2023-09-26T10:18:38.512Z,21.11
2023-09-26T10:21:29.534Z,21.21
2023-09-26T10:24:06.174Z,21.28
2023-09-26T10:26:34.537Z,21.25
2023-09-26T10:29:05.816Z,21.24
2023-09-26T10:31:38.296Z,21.27
2023-09-26T10:34:07.026Z,21.31
2023-09-26T10:36:38.739Z,21.33
2023-09-26T10:39:07.160Z,21.39
2023-09-26T10:41:46.327Z,21.48
2023-09-26T10:44:22.134Z,21.59
2023-09-26T10:46:49.664Z,21.69
2023-09-26T10:49:17.244Z,21.77
2023-09-26T10:51:44.927Z,21.82
2023-09-26T10:54:12.357Z,21.83
2023-09-26T10:56:47.449Z,21.82
2023-09-26T10:59:18.764Z,21.83
2023-09-26T11:01:49.239Z,21.86
2023-09-26T11:04:17.195Z,21.90
2023-09-26T11:06:45.478Z,21.95
2023-09-26T11:09:13.607Z,21.98
2023-09-26T11:11:41.988Z,21.99
2023-09-26T11:14:09.435Z,22.00
2023-09-26T11:16:36.886Z,22.02
2023-09-26T11:19:04.669Z,22.04
2023-09-26T11:21:32.455Z,22.06
2023-09-26T11:24:00.709Z,22.09
2023-09-26T11:26:28.100Z,22.07
2023-09-26T11:28:56.165Z,22.04
2023-09-26T11:31:25.020Z,22.03
2023-09-26T11:33:52.876Z,22.05
2023-09-26T11:36:20.469Z,22.09
2023-09-26T11:38:49.381Z,22.11
2023-09-26T11:41:17.230Z,22.13
2023-09-26T11:43:48.880Z,22.14
2023-09-26T11:46:16.701Z,22.15
2023-09-26T11:48:44.528Z,22.18
2023-09-26T11:51:12.041Z,22.20
2023-09-26T11:53:39.626Z,22.23
2023-09-26T11:56:08.718Z,22.25
2023-09-26T11:58:38.108Z,22.24
2023-09-26T12:01:06.243Z,22.24
2023-09-26T12:03:33.901Z,22.27
2023-09-26T12:06:02.716Z,22.30
2023-09-26T12:08:30.548Z,22.34
2023-09-26T12:10:59.380Z,22.36
2023-09-26T12:13:27.095Z,22.38
2023-09-26T12:15:54.763Z,22.40
2023-09-26T12:18:22.370Z,22.40
2023-09-26T12:20:56.993Z,22.42
2023-09-26T12:23:25.754Z,22.44
2023-09-26T12:25:53.430Z,22.46
2023-09-26T12:28:23.317Z,22.47
2023-09-26T12:30:51.653Z,22.45
2023-09-26T12:33:19.260Z,22.44
2023-09-26T12:35:46.834Z,22.42
2023-09-26T12:38:14.354Z,22.40
2023-09-26T12:40:42.131Z,22.40
2023-09-26T12:43:09.686Z,22.41
2023-09-26T12:45:37.247Z,22.41
2023-09-26T12:48:05.348Z,22.41
2023-09-26T12:50:41.967Z,22.42
2023-09-26T12:53:09.554Z,22.45
2023-09-26T12:55:37.206Z,22.46
2023-09-26T12:58:05.021Z,22.46
2023-09-26T13:00:34.955Z,22.46
2023-09-26T13:03:02.612Z,22.46
2023-09-26T13:05:30.316Z,22.45
2023-09-26T13:07:57.932Z,22.44
2023-09-26T13:16:57.302Z,22.48
2023-09-26T13:19:26.367Z,22.47
2023-09-26T13:21:55.782Z,22.48
2023-09-26T13:24:27.850Z,22.47
2023-09-26T13:26:56.588Z,22.46
2023-09-26T13:29:25.986Z,22.45
2023-09-26T13:31:53.846Z,22.44
2023-09-26T13:34:21.692Z,22.43
2023-09-26T13:36:49.201Z,22.42
2023-09-26T13:39:17.298Z,22.40
2023-09-26T13:41:44.901Z,22.40
2023-09-26T13:44:13.017Z,22.38
2023-09-26T13:46:41.036Z,22.37
2023-09-26T13:49:09.917Z,22.36
2023-09-26T13:51:37.706Z,22.37
2023-09-26T13:54:07.740Z,22.36
2023-09-26T13:56:35.371Z,22.36
2023-09-26T13:59:02.950Z,22.38
2023-09-26T14:01:30.462Z,22.37
2023-09-26T14:03:58.703Z,22.38
2023-09-26T14:06:26.790Z,22.40
2023-09-26T14:08:54.369Z,22.41
2023-09-26T14:11:22.273Z,22.42
2023-09-26T14:13:49.796Z,22.42
2023-09-26T14:16:17.557Z,22.44
2023-09-26T14:18:45.222Z,22.44
2023-09-26T14:21:15.763Z,22.43
2023-09-26T14:23:43.558Z,22.43
2023-09-26T14:26:11.552Z,22.44
2023-09-26T14:28:42.772Z,22.44
2023-09-26T14:31:10.853Z,22.43
2023-09-26T14:33:38.759Z,22.42
2023-09-26T14:36:09.061Z,22.40
2023-09-26T14:38:36.637Z,22.38
2023-09-26T14:41:04.167Z,22.36
2023-09-26T14:43:31.802Z,22.33
2023-09-26T14:45:59.360Z,22.31
2023-09-26T14:48:26.935Z,22.28
2023-09-26T14:50:56.558Z,22.25
2023-09-26T14:53:24.101Z,22.22
2023-09-26T14:55:51.870Z,22.19
2023-09-26T14:58:20.559Z,22.17
2023-09-26T15:00:48.424Z,22.14
2023-09-26T15:03:17.252Z,22.12
2023-09-26T15:05:46.194Z,22.09
2023-09-26T15:08:17.427Z,22.06
2023-09-26T15:10:45.002Z,22.03
2023-09-26T15:13:13.640Z,21.99
2023-09-26T15:15:43.565Z,21.95
2023-09-26T15:18:12.181Z,21.92
2023-09-26T15:20:42.243Z,21.88
2023-09-26T15:23:10.951Z,21.85
2023-09-26T15:25:38.548Z,21.80
2023-09-26T15:28:06.297Z,21.76
2023-09-26T15:30:33.750Z,21.72
2023-09-26T15:33:01.500Z,21.68
2023-09-26T15:35:29.473Z,21.64
2023-09-26T15:37:56.924Z,21.60
2023-09-26T15:40:29.405Z,21.56
2023-09-26T15:42:56.883Z,21.52
2023-09-26T15:45:24.294Z,21.47
2023-09-26T15:47:54.313Z,21.41
2023-09-26T15:50:21.986Z,21.36
2023-09-26T15:52:54.390Z,21.34
2023-09-26T15:55:21.854Z,21.35
2023-09-26T15:57:49.259Z,21.33
2023-09-26T16:00:17.701Z,21.29
2023-09-26T16:02:45.221Z,21.23
2023-09-26T16:05:12.789Z,21.16
2023-09-26T16:07:40.834Z,21.09
2023-09-26T16:10:10.340Z,21.02
2023-09-26T16:12:43.287Z,20.94
2023-09-26T16:15:18.815Z,20.86
2023-09-26T16:17:46.343Z,20.83
2023-09-26T16:20:14.034Z,20.83
2023-09-26T16:22:42.205Z,20.80
2023-09-26T16:25:10.165Z,20.73
2023-09-26T16:27:37.549Z,20.64
2023-09-26T16:30:05.617Z,20.56
2023-09-26T16:32:33.393Z,20.47
2023-09-26T16:35:00.973Z,20.39
2023-09-26T16:37:28.743Z,20.38
2023-09-26T16:39:56.336Z,20.39
2023-09-26T16:42:24.028Z,20.35
2023-09-26T16:44:51.575Z,20.29
2023-09-26T16:47:19.168Z,20.24
2023-09-26T16:49:46.924Z,20.17
2023-09-26T16:52:14.401Z,20.08
2023-09-26T16:54:41.870Z,20.03
2023-09-26T16:57:09.770Z,20.00
2023-09-26T16:59:37.265Z,19.96
2023-09-26T17:02:04.800Z,19.91
2023-09-26T17:04:32.933Z,19.85
2023-09-26T17:07:00.709Z,19.80
2023-09-26T17:09:28.320Z,19.79
2023-09-26T17:11:55.992Z,19.78
2023-09-26T17:14:24.903Z,19.75
2023-09-26T17:16:52.455Z,19.70
2023-09-26T17:19:19.982Z,19.62
2023-09-26T17:21:47.867Z,19.55
2023-09-26T17:24:15.412Z,19.52
2023-09-26T17:26:44.058Z,19.50
2023-09-26T17:29:12.303Z,19.45
2023-09-26T17:31:40.404Z,19.39
2023-09-26T17:34:07.979Z,19.31
2023-09-26T17:36:35.545Z,19.27
2023-09-26T17:39:03.505Z,19.24
2023-09-26T17:41:31.844Z,19.19
2023-09-26T17:44:00.009Z,19.14
2023-09-26T17:46:28.798Z,19.07
2023-09-26T17:48:56.277Z,19.04
2023-09-26T17:51:23.897Z,19.02
2023-09-26T17:53:51.395Z,18.97
2023-09-26T17:56:18.958Z,18.92
2023-09-26T17:58:46.665Z,18.89
2023-09-26T18:01:14.667Z,18.88
2023-09-26T18:03:42.321Z,18.89
2023-09-26T18:06:09.884Z,18.90
2023-09-26T18:08:37.550Z,18.89
2023-09-26T18:11:05.504Z,18.88
2023-09-26T18:13:33.080Z,18.88
2023-09-26T18:16:00.739Z,18.88
2023-09-26T18:18:28.437Z,18.82
2023-09-26T18:20:56.057Z,18.77
2023-09-26T18:23:23.684Z,18.72
2023-09-26T18:25:51.485Z,18.64
2023-09-26T18:28:19.552Z,18.59
2023-09-26T18:30:47.039Z,18.57
2023-09-26T18:33:14.561Z,18.53
2023-09-26T18:35:42.139Z,18.49
2023-09-26T18:38:10.706Z,18.45
2023-09-26T18:40:38.255Z,18.45
2023-09-26T18:43:05.846Z,18.48
2023-09-26T18:45:33.332Z,18.49
2023-09-26T18:48:00.878Z,18.48
2023-09-26T18:50:28.419Z,18.44
2023-09-26T18:52:55.967Z,18.41
2023-09-26T18:55:23.483Z,18.41
2023-09-26T18:57:50.919Z,18.44
2023-09-26T19:00:18.532Z,18.44
2023-09-26T19:02:46.398Z,18.40
2023-09-26T19:05:14.719Z,18.33
2023-09-26T19:07:42.397Z,18.30
2023-09-26T19:10:10.238Z,18.32
2023-09-26T19:12:37.907Z,18.30
2023-09-26T19:15:05.836Z,18.25
2023-09-26T19:17:33.330Z,18.17
2023-09-26T19:20:00.835Z,18.11
2023-09-26T19:22:28.452Z,18.09
2023-09-26T19:24:55.896Z,18.08
2023-09-26T19:27:23.356Z,18.03
2023-09-26T19:29:50.727Z,17.96
2023-09-26T19:32:18.239Z,17.90
2023-09-26T19:34:45.744Z,17.87
2023-09-26T19:37:13.394Z,17.87
2023-09-26T19:39:40.751Z,17.87
2023-09-26T19:42:08.491Z,17.84
2023-09-26T19:44:36.233Z,17.78
2023-09-26T19:47:03.794Z,17.73
2023-09-26T19:49:32.076Z,17.74
2023-09-26T19:51:59.536Z,17.77
2023-09-26T19:54:26.927Z,17.75
2023-09-26T19:56:54.676Z,17.68
2023-09-26T19:59:22.259Z,17.61
2023-09-26T20:01:49.893Z,17.59
2023-09-26T20:04:17.558Z,17.59
2023-09-26T20:06:44.933Z,17.57
2023-09-26T20:09:13.002Z,17.56
2023-09-26T20:11:40.473Z,17.54
2023-09-26T20:14:07.906Z,17.50
2023-09-26T20:16:35.398Z,17.50
2023-09-26T20:19:03.117Z,17.53
2023-09-26T20:21:30.514Z,17.54
2023-09-26T20:23:58.185Z,17.50
2023-09-26T20:26:25.642Z,17.45
2023-09-26T20:28:53.839Z,17.40
2023-09-26T20:31:21.437Z,17.36
2023-09-26T20:33:48.822Z,17.35
2023-09-26T20:36:16.351Z,17.35
2023-09-26T20:38:44.022Z,17.30
2023-09-26T20:41:11.439Z,17.23
2023-09-26T20:43:41.850Z,17.17
2023-09-26T20:46:10.456Z,17.15
2023-09-26T20:48:37.964Z,17.15
2023-09-26T20:51:06.680Z,17.11
2023-09-26T20:53:34.154Z,17.05
2023-09-26T20:56:05.563Z,16.95
2023-09-26T20:58:34.111Z,16.86
2023-09-26T21:01:09.097Z,16.83
2023-09-26T21:03:37.101Z,16.85
2023-09-26T21:06:04.830Z,16.86
2023-09-26T21:08:35.006Z,16.83
2023-09-26T21:11:03.142Z,16.81
2023-09-26T21:13:31.523Z,16.81
2023-09-26T21:16:16.230Z,16.86
2023-09-26T21:18:45.933Z,16.88
2023-09-26T21:21:21.711Z,16.87
2023-09-26T21:23:50.005Z,16.83
2023-09-26T21:26:17.934Z,16.79
2023-09-26T21:28:45.748Z,16.79
2023-09-26T21:31:13.132Z,16.79
2023-09-26T21:33:40.483Z,16.74
2023-09-26T21:36:08.130Z,16.70
2023-09-26T21:38:35.735Z,16.65
2023-09-26T21:41:03.833Z,16.61
2023-09-26T21:43:31.498Z,16.62
2023-09-26T21:45:58.998Z,16.66
2023-09-26T21:48:26.462Z,16.66
2023-09-26T21:50:53.879Z,16.65
2023-09-26T21:53:21.263Z,16.61
2023-09-26T21:55:48.864Z,16.55
2023-09-26T21:58:16.570Z,16.55
2023-09-26T22:00:43.921Z,16.57
2023-09-26T22:05:39.310Z,16.55
2023-09-26T22:08:06.990Z,16.47
2023-09-26T22:10:35.004Z,16.44
2023-09-26T22:13:03.168Z,16.43
2023-09-26T22:15:30.617Z,16.41
2023-09-26T22:17:58.621Z,16.36
2023-09-26T22:20:34.021Z,16.27
2023-09-26T22:23:02.019Z,16.18
2023-09-26T22:25:29.556Z,16.12
2023-09-26T22:27:57.134Z,16.07
2023-09-26T22:30:24.894Z,16.02
2023-09-26T22:32:52.409Z,15.94
2023-09-26T22:35:20.201Z,15.84
2023-09-26T22:37:47.814Z,15.78
2023-09-26T22:40:15.200Z,15.75
2023-09-26T22:42:42.876Z,15.68
2023-09-26T22:45:11.485Z,15.60
2023-09-26T22:47:39.029Z,15.52
2023-09-26T22:50:06.745Z,15.49
2023-09-26T22:52:35.027Z,15.47
2023-09-26T22:55:03.857Z,15.42
2023-09-26T22:57:31.249Z,15.34
2023-09-26T22:59:58.636Z,15.26
2023-09-26T23:02:26.221Z,15.23
2023-09-26T23:04:53.632Z,15.23
2023-09-26T23:07:20.984Z,15.23
2023-09-26T23:09:48.501Z,15.19
2023-09-26T23:12:15.954Z,15.14
2023-09-26T23:14:43.371Z,15.10
2023-09-26T23:17:12.180Z,15.11
2023-09-26T23:19:39.887Z,15.13
2023-09-26T23:22:07.314Z,15.11
2023-09-26T23:24:34.789Z,15.08
2023-09-26T23:27:02.258Z,15.03
2023-09-26T23:29:29.694Z,15.03
2023-09-26T23:31:57.185Z,15.07
2023-09-26T23:34:25.615Z,15.07
2023-09-26T23:36:54.276Z,15.00
2023-09-26T23:39:23.191Z,14.93
2023-09-26T23:41:50.524Z,14.86
2023-09-26T23:44:18.103Z,14.84
2023-09-26T23:46:45.607Z,14.84
2023-09-26T23:49:12.929Z,14.82
2023-09-26T23:51:40.674Z,14.78
2023-09-26T23:54:08.652Z,14.73
2023-09-26T23:56:36.025Z,14.73
2023-09-26T23:59:03.557Z,14.73
